sensor_id;sensor_type;location;lat;lon;timestamp;pressure;altitude;pressure_sealevel;temperature;humidity
75767;BME280;64378;55.596;13.014;2023-01-05T00:01:08;99633.25;;;19.79;45.20
75767;BME280;64378;55.596;13.014;2023-01-05T00:03:35;99624.50;;;19.77;45.24
75767;BME280;64378;55.596;13.014;2023-01-05T00:06:11;99627.25;;;19.77;45.17
75767;BME280;64378;55.596;13.014;2023-01-05T00:08:37;99629.97;;;19.77;45.41
75767;BME280;64378;55.596;13.014;2023-01-05T00:11:09;99629.19;;;19.77;45.03
75767;BME280;64378;55.596;13.014;2023-01-05T00:13:54;99635.75;;;19.76;44.83
75767;BME280;64378;55.596;13.014;2023-01-05T00:16:38;99631.38;;;19.75;44.62
75767;BME280;64378;55.596;13.014;2023-01-05T00:19:22;99632.19;;;19.75;44.78
75767;BME280;64378;55.596;13.014;2023-01-05T00:22:20;99641.00;;;19.72;44.54
75767;BME280;64378;55.596;13.014;2023-01-05T00:24:58;99644.00;;;19.71;44.62
75767;BME280;64378;55.596;13.014;2023-01-05T00:27:25;99635.28;;;19.69;44.50
75767;BME280;64378;55.596;13.014;2023-01-05T00:29:50;99640.75;;;19.69;44.32
75767;BME280;64378;55.596;13.014;2023-01-05T00:32:16;99639.09;;;19.68;44.31
75767;BME280;64378;55.596;13.014;2023-01-05T00:34:41;99653.63;;;19.68;44.30
75767;BME280;64378;55.596;13.014;2023-01-05T00:37:06;99651.16;;;19.67;44.12
75767;BME280;64378;55.596;13.014;2023-01-05T00:39:32;99653.38;;;19.65;44.21
75767;BME280;64378;55.596;13.014;2023-01-05T00:41:57;99652.56;;;19.64;44.01
75767;BME280;64378;55.596;13.014;2023-01-05T00:44:22;99648.19;;;19.63;43.90
75767;BME280;64378;55.596;13.014;2023-01-05T00:46:48;99655.56;;;19.63;43.74
75767;BME280;64378;55.596;13.014;2023-01-05T00:49:13;99658.59;;;19.62;44.04
75767;BME280;64378;55.596;13.014;2023-01-05T00:51:38;99655.88;;;19.62;43.72
75767;BME280;64378;55.596;13.014;2023-01-05T00:54:04;99664.91;;;19.62;43.58
75767;BME280;64378;55.596;13.014;2023-01-05T00:56:29;99650.69;;;19.60;43.37
75767;BME280;64378;55.596;13.014;2023-01-05T00:58:54;99648.75;;;19.61;43.37
75767;BME280;64378;55.596;13.014;2023-01-05T01:01:20;99656.16;;;19.60;43.61
75767;BME280;64378;55.596;13.014;2023-01-05T01:03:45;99649.06;;;19.59;43.28
75767;BME280;64378;55.596;13.014;2023-01-05T01:06:11;99659.16;;;19.59;43.42
75767;BME280;64378;55.596;13.014;2023-01-05T01:08:37;99652.91;;;19.58;43.50
75767;BME280;64378;55.596;13.014;2023-01-05T01:11:04;99645.25;;;19.55;43.20
75767;BME280;64378;55.596;13.014;2023-01-05T01:13:32;99647.69;;;19.57;43.46
75767;BME280;64378;55.596;13.014;2023-01-05T01:15:57;99649.63;;;19.56;43.53
75767;BME280;64378;55.596;13.014;2023-01-05T01:18:22;99654.28;;;19.56;43.52
75767;BME280;64378;55.596;13.014;2023-01-05T01:20:48;99641.41;;;19.56;43.40
75767;BME280;64378;55.596;13.014;2023-01-05T01:23:14;99647.69;;;19.57;43.64
75767;BME280;64378;55.596;13.014;2023-01-05T01:25:39;99658.63;;;19.57;43.48
75767;BME280;64378;55.596;13.014;2023-01-05T01:28:05;99651.84;;;19.54;43.32
75767;BME280;64378;55.596;13.014;2023-01-05T01:30:30;99651.53;;;19.56;43.46
75767;BME280;64378;55.596;13.014;2023-01-05T01:32:56;99652.63;;;19.55;43.49
75767;BME280;64378;55.596;13.014;2023-01-05T01:35:21;99663.56;;;19.55;43.22
75767;BME280;64378;55.596;13.014;2023-01-05T01:37:46;99658.94;;;19.55;43.10
75767;BME280;64378;55.596;13.014;2023-01-05T01:40:12;99651.84;;;19.54;43.13
75767;BME280;64378;55.596;13.014;2023-01-05T01:42:37;99661.16;;;19.53;43.29
75767;BME280;64378;55.596;13.014;2023-01-05T01:45:14;99661.94;;;19.54;43.11
75767;BME280;64378;55.596;13.014;2023-01-05T01:47:46;99659.50;;;19.52;43.19
75767;BME280;64378;55.596;13.014;2023-01-05T01:50:19;99661.41;;;19.52;43.06
75767;BME280;64378;55.596;13.014;2023-01-05T01:52:49;99666.09;;;19.51;43.10
75767;BME280;64378;55.596;13.014;2023-01-05T01:55:16;99654.03;;;19.52;43.10
75767;BME280;64378;55.596;13.014;2023-01-05T01:57:43;99664.97;;;19.52;42.82
75767;BME280;64378;55.596;13.014;2023-01-05T02:00:11;99661.72;;;19.50;43.02
75767;BME280;64378;55.596;13.014;2023-01-05T02:02:39;99664.16;;;19.52;43.02
75767;BME280;64378;55.596;13.014;2023-01-05T02:05:07;99663.34;;;19.51;43.12
75767;BME280;64378;55.596;13.014;2023-01-05T02:07:36;99662.25;;;19.52;43.12
75767;BME280;64378;55.596;13.014;2023-01-05T02:10:03;99649.94;;;19.50;43.07
75767;BME280;64378;55.596;13.014;2023-01-05T02:12:50;99666.09;;;19.51;43.07
75767;BME280;64378;55.596;13.014;2023-01-05T02:31:35;99663.38;;;19.46;43.54
75767;BME280;64378;55.596;13.014;2023-01-05T02:36:35;99660.66;;;19.46;43.61
75767;BME280;64378;55.596;13.014;2023-01-05T02:39:13;99663.38;;;19.46;43.64
75767;BME280;64378;55.596;13.014;2023-01-05T02:44:14;99663.69;;;19.45;43.46
75767;BME280;64378;55.596;13.014;2023-01-05T02:46:40;99662.84;;;19.44;43.42
75767;BME280;64378;55.596;13.014;2023-01-05T02:49:05;99667.50;;;19.44;43.42
75767;BME280;64378;55.596;13.014;2023-01-05T02:51:37;99662.03;;;19.44;43.57
75767;BME280;64378;55.596;13.014;2023-01-05T02:54:14;99665.03;;;19.42;43.45
75767;BME280;64378;55.596;13.014;2023-01-05T02:56:56;99672.44;;;19.42;43.27
75767;BME280;64378;55.596;13.014;2023-01-05T02:59:26;99662.59;;;19.41;43.33
75767;BME280;64378;55.596;13.014;2023-01-05T03:01:58;99665.34;;;19.41;43.54
75767;BME280;64378;55.596;13.014;2023-01-05T03:07:01;99663.41;;;19.41;43.25
75767;BME280;64378;55.596;13.014;2023-01-05T03:09:31;99671.63;;;19.41;43.48
75767;BME280;64378;55.596;13.014;2023-01-05T03:12:21;99663.72;;;19.40;43.33
75767;BME280;64378;55.596;13.014;2023-01-05T03:17:56;99654.97;;;19.38;43.41
75767;BME280;64378;55.596;13.014;2023-01-05T03:20:28;99669.19;;;19.40;43.39
75767;BME280;64378;55.596;13.014;2023-01-05T03:22:56;99659.34;;;19.39;43.36
75767;BME280;64378;55.596;13.014;2023-01-05T03:25:42;99664.81;;;19.39;43.40
75767;BME280;64378;55.596;13.014;2023-01-05T03:28:30;99663.97;;;19.38;43.32
75767;BME280;64378;55.596;13.014;2023-01-05T03:31:22;99674.91;;;19.38;43.15
75767;BME280;64378;55.596;13.014;2023-01-05T03:34:27;99674.13;;;19.38;43.13
75767;BME280;64378;55.596;13.014;2023-01-05T03:37:16;99672.47;;;19.37;42.99
75767;BME280;64378;55.596;13.014;2023-01-05T03:39:45;99670.53;;;19.37;43.21
75767;BME280;64378;55.596;13.014;2023-01-05T03:42:13;99681.22;;;19.39;42.98
75767;BME280;64378;55.596;13.014;2023-01-05T03:44:42;99681.50;;;19.37;43.03
75767;BME280;64378;55.596;13.014;2023-01-05T03:47:08;99677.66;;;19.38;43.03
75767;BME280;64378;55.596;13.014;2023-01-05T03:49:34;99686.97;;;19.37;43.02
75767;BME280;64378;55.596;13.014;2023-01-05T03:52:00;99672.47;;;19.37;43.01
75767;BME280;64378;55.596;13.014;2023-01-05T03:54:26;99691.34;;;19.38;43.08
75767;BME280;64378;55.596;13.014;2023-01-05T03:56:51;99684.53;;;19.36;42.85
75767;BME280;64378;55.596;13.014;2023-01-05T03:59:16;99686.16;;;19.37;42.86
75767;BME280;64378;55.596;13.014;2023-01-05T04:01:42;99698.75;;;19.38;42.73
75767;BME280;64378;55.596;13.014;2023-01-05T04:04:07;99701.78;;;19.36;43.01
75767;BME280;64378;55.596;13.014;2023-01-05T04:06:32;99696.28;;;19.36;42.80
75767;BME280;64378;55.596;13.014;2023-01-05T04:08:58;99704.50;;;19.36;42.67
75767;BME280;64378;55.596;13.014;2023-01-05T04:11:24;99712.72;;;19.36;42.69
75767;BME280;64378;55.596;13.014;2023-01-05T04:13:49;99722.00;;;19.35;42.92
75767;BME280;64378;55.596;13.014;2023-01-05T04:16:15;99711.56;;;19.37;42.60
75767;BME280;64378;55.596;13.014;2023-01-05T04:18:41;99709.97;;;19.36;42.40
75767;BME280;64378;55.596;13.014;2023-01-05T04:21:06;99719.78;;;19.37;42.54
75767;BME280;64378;55.596;13.014;2023-01-05T04:23:32;99726.38;;;19.36;42.57
75767;BME280;64378;55.596;13.014;2023-01-05T04:25:59;99728.81;;;19.38;42.22
75767;BME280;64378;55.596;13.014;2023-01-05T04:28:24;99729.63;;;19.38;42.20
75767;BME280;64378;55.596;13.014;2023-01-05T04:30:51;99728.00;;;19.37;41.90
75767;BME280;64378;55.596;13.014;2023-01-05T04:33:17;99730.72;;;19.37;42.01
75767;BME280;64378;55.596;13.014;2023-01-05T04:35:43;99737.03;;;19.38;41.88
75767;BME280;64378;55.596;13.014;2023-01-05T04:38:09;99738.94;;;19.37;41.96
75767;BME280;64378;55.596;13.014;2023-01-05T04:40:34;99745.25;;;19.38;41.41
75767;BME280;64378;55.596;13.014;2023-01-05T04:43:00;99752.59;;;19.37;41.62
75767;BME280;64378;55.596;13.014;2023-01-05T04:45:25;99752.91;;;19.36;41.41
75767;BME280;64378;55.596;13.014;2023-01-05T04:47:51;99769.31;;;19.36;41.15
75767;BME280;64378;55.596;13.014;2023-01-05T04:50:17;99768.53;;;19.35;41.41
75767;BME280;64378;55.596;13.014;2023-01-05T04:52:42;99775.88;;;19.35;41.44
75767;BME280;64378;55.596;13.014;2023-01-05T04:55:07;99788.75;;;19.34;41.29
75767;BME280;64378;55.596;13.014;2023-01-05T04:57:33;99790.66;;;19.34;41.10
75767;BME280;64378;55.596;13.014;2023-01-05T04:59:58;99798.88;;;19.34;41.04
75767;BME280;64378;55.596;13.014;2023-01-05T05:02:25;99787.94;;;19.34;40.95
75767;BME280;64378;55.596;13.014;2023-01-05T05:04:50;99798.88;;;19.34;40.98
75767;BME280;64378;55.596;13.014;2023-01-05T05:07:15;99798.06;;;19.33;40.67
75767;BME280;64378;55.596;13.014;2023-01-05T05:09:41;99799.97;;;19.33;40.65
75767;BME280;64378;55.596;13.014;2023-01-05T05:12:06;99799.16;;;19.32;40.30
75767;BME280;64378;55.596;13.014;2023-01-05T05:14:32;99804.63;;;19.32;40.65
75767;BME280;64378;55.596;13.014;2023-01-05T05:16:57;99806.53;;;19.32;40.31
75767;BME280;64378;55.596;13.014;2023-01-05T05:19:23;99793.16;;;19.30;40.54
75767;BME280;64378;55.596;13.014;2023-01-05T05:21:48;99813.09;;;19.31;40.45
75767;BME280;64378;55.596;13.014;2023-01-05T05:24:13;99812.31;;;19.30;40.39
75767;BME280;64378;55.596;13.014;2023-01-05T05:26:39;99819.69;;;19.30;39.95
75767;BME280;64378;55.596;13.014;2023-01-05T05:29:04;99815.31;;;19.29;40.04
75767;BME280;64378;55.596;13.014;2023-01-05T05:31:29;99827.88;;;19.30;40.17
75767;BME280;64378;55.596;13.014;2023-01-05T05:33:55;99823.50;;;19.29;40.06
75767;BME280;64378;55.596;13.014;2023-01-05T05:36:20;99827.34;;;19.28;39.97
75767;BME280;64378;55.596;13.014;2023-01-05T05:38:46;99838.03;;;19.29;39.83
75767;BME280;64378;55.596;13.014;2023-01-05T05:41:11;99828.97;;;19.29;39.80
75767;BME280;64378;55.596;13.014;2023-01-05T05:43:36;99841.00;;;19.28;39.76
75767;BME280;64378;55.596;13.014;2023-01-05T05:46:02;99854.97;;;19.26;39.93
75767;BME280;64378;55.596;13.014;2023-01-05T05:48:27;99845.94;;;19.26;39.63
75767;BME280;64378;55.596;13.014;2023-01-05T05:50:53;99850.59;;;19.25;39.89
75767;BME280;64378;55.596;13.014;2023-01-05T05:53:18;99860.72;;;19.25;39.89
75767;BME280;64378;55.596;13.014;2023-01-05T05:55:48;99862.66;;;19.24;39.97
75767;BME280;64378;55.596;13.014;2023-01-05T05:58:14;99877.13;;;19.25;39.82
75767;BME280;64378;55.596;13.014;2023-01-05T06:00:39;99871.66;;;19.25;39.88
75767;BME280;64378;55.596;13.014;2023-01-05T06:03:05;99888.91;;;19.25;39.82
75767;BME280;64378;55.596;13.014;2023-01-05T06:05:30;99890.00;;;19.24;39.65
75767;BME280;64378;55.596;13.014;2023-01-05T06:07:56;99895.47;;;19.24;39.79
75767;BME280;64378;55.596;13.014;2023-01-05T06:10:21;99897.41;;;19.24;39.74
75767;BME280;64378;55.596;13.014;2023-01-05T06:12:46;99897.41;;;19.24;39.64
75767;BME280;64378;55.596;13.014;2023-01-05T06:15:12;99903.97;;;19.23;39.60
75767;BME280;64378;55.596;13.014;2023-01-05T06:17:37;99912.16;;;19.23;39.71
75767;BME280;64378;55.596;13.014;2023-01-05T06:20:04;99914.91;;;19.23;39.51
75767;BME280;64378;55.596;13.014;2023-01-05T06:22:29;99913.25;;;19.22;39.58
75767;BME280;64378;55.596;13.014;2023-01-05T06:24:55;99913.25;;;19.22;39.59
75767;BME280;64378;55.596;13.014;2023-01-05T06:27:20;99920.38;;;19.23;39.41
75767;BME280;64378;55.596;13.014;2023-01-05T06:29:46;99920.63;;;19.21;39.39
75767;BME280;64378;55.596;13.014;2023-01-05T06:32:11;99921.47;;;19.22;39.25
75767;BME280;64378;55.596;13.014;2023-01-05T06:34:36;99929.69;;;19.22;39.44
75767;BME280;64378;55.596;13.014;2023-01-05T06:37:02;99937.88;;;19.22;39.55
75767;BME280;64378;55.596;13.014;2023-01-05T06:39:27;99956.19;;;19.21;39.38
75767;BME280;64378;55.596;13.014;2023-01-05T06:41:52;99969.06;;;19.21;39.46
75767;BME280;64378;55.596;13.014;2023-01-05T06:44:18;99960.84;;;19.21;39.31
75767;BME280;64378;55.596;13.014;2023-01-05T06:46:43;99980.00;;;19.21;39.15
75767;BME280;64378;55.596;13.014;2023-01-05T06:49:10;99979.16;;;19.20;39.35
75767;BME280;64378;55.596;13.014;2023-01-05T06:51:36;99990.09;;;19.20;39.60
75767;BME280;64378;55.596;13.014;2023-01-05T06:54:01;99984.63;;;19.20;39.47
75767;BME280;64378;55.596;13.014;2023-01-05T06:56:27;100001.03;;;19.20;39.46
75767;BME280;64378;55.596;13.014;2023-01-05T06:58:52;100002.97;;;19.20;39.30
75767;BME280;64378;55.596;13.014;2023-01-05T07:01:17;100013.06;;;19.19;39.46
75767;BME280;64378;55.596;13.014;2023-01-05T07:03:43;100007.34;;;19.21;39.49
75767;BME280;64378;55.596;13.014;2023-01-05T07:06:12;100009.00;;;19.22;39.52
75767;BME280;64378;55.596;13.014;2023-01-05T07:08:38;100009.00;;;19.22;39.47
75767;BME280;64378;55.596;13.014;2023-01-05T07:11:04;100023.47;;;19.22;39.57
75767;BME280;64378;55.596;13.014;2023-01-05T07:13:29;100030.03;;;19.21;39.70
75767;BME280;64378;55.596;13.014;2023-01-05T07:15:54;100025.66;;;19.20;39.75
75767;BME280;64378;55.596;13.014;2023-01-05T07:18:20;100039.06;;;19.22;39.58
75767;BME280;64378;55.596;13.014;2023-01-05T07:20:45;100031.66;;;19.22;39.65
75767;BME280;64378;55.596;13.014;2023-01-05T07:23:10;100045.63;;;19.21;39.68
75767;BME280;64378;55.596;13.014;2023-01-05T07:25:36;100046.19;;;19.23;39.72
75767;BME280;64378;55.596;13.014;2023-01-05T07:28:01;100051.66;;;19.23;39.80
75767;BME280;64378;55.596;13.014;2023-01-05T07:30:26;100054.38;;;19.23;39.90
75767;BME280;64378;55.596;13.014;2023-01-05T07:32:52;100060.66;;;19.23;40.09
75767;BME280;64378;55.596;13.014;2023-01-05T07:35:21;100065.34;;;19.23;40.37
75767;BME280;64378;55.596;13.014;2023-01-05T07:37:46;100074.06;;;19.25;40.17
75767;BME280;64378;55.596;13.014;2023-01-05T07:40:12;100072.16;;;19.25;40.63
75767;BME280;64378;55.596;13.014;2023-01-05T07:42:37;100095.94;;;19.25;40.74
75767;BME280;64378;55.596;13.014;2023-01-05T07:45:03;100094.59;;;19.27;40.85
75767;BME280;64378;55.596;13.014;2023-01-05T07:47:29;100101.94;;;19.27;40.98
75767;BME280;64378;55.596;13.014;2023-01-05T07:49:55;100112.91;;;19.27;41.17
75767;BME280;64378;55.596;13.014;2023-01-05T07:52:20;100114.28;;;19.29;41.55
75767;BME280;64378;55.596;13.014;2023-01-05T07:54:46;100130.41;;;19.31;41.17
75767;BME280;64378;55.596;13.014;2023-01-05T07:57:11;100127.66;;;19.31;41.15
75767;BME280;64378;55.596;13.014;2023-01-05T07:59:39;100146.03;;;19.35;41.92
75767;BME280;64378;55.596;13.014;2023-01-05T08:02:05;100143.53;;;19.39;41.79
75767;BME280;64378;55.596;13.014;2023-01-05T08:04:30;100153.66;;;19.43;42.17
75767;BME280;64378;55.596;13.014;2023-01-05T08:06:55;100141.34;;;19.36;42.51
75767;BME280;64378;55.596;13.014;2023-01-05T08:09:21;100172.28;;;19.51;42.50
75767;BME280;64378;55.596;13.014;2023-01-05T08:12:05;100181.28;;;19.57;42.27
75767;BME280;64378;55.596;13.014;2023-01-05T08:14:30;100174.47;;;19.59;42.03
75767;BME280;64378;55.596;13.014;2023-01-05T08:16:55;100192.25;;;19.62;42.15
75767;BME280;64378;55.596;13.014;2023-01-05T08:19:21;100196.34;;;19.64;42.02
75767;BME280;64378;55.596;13.014;2023-01-05T08:21:46;100205.66;;;19.68;41.98
75767;BME280;64378;55.596;13.014;2023-01-05T08:24:11;100217.69;;;19.72;42.00
75767;BME280;64378;55.596;13.014;2023-01-05T08:26:37;100226.47;;;19.74;42.00
75767;BME280;64378;55.596;13.014;2023-01-05T08:29:02;100222.63;;;19.75;42.00
75767;BME280;64378;55.596;13.014;2023-01-05T08:31:30;100236.59;;;19.78;42.00
75767;BME280;64378;55.596;13.014;2023-01-05T08:33:56;100240.97;;;19.79;42.41
75767;BME280;64378;55.596;13.014;2023-01-05T08:36:24;100244.25;;;19.81;41.89
75767;BME280;64378;55.596;13.014;2023-01-05T08:38:51;100254.94;;;19.83;42.13
75767;BME280;64378;55.596;13.014;2023-01-05T08:41:21;100253.84;;;19.84;42.01
75767;BME280;64378;55.596;13.014;2023-01-05T08:43:51;100276.00;;;19.87;41.68
75767;BME280;64378;55.596;13.014;2023-01-05T08:46:18;100286.97;;;19.87;41.59
75767;BME280;64378;55.596;13.014;2023-01-05T08:48:53;100291.91;;;19.90;41.69
75767;BME280;64378;55.596;13.014;2023-01-05T08:51:20;100307.25;;;19.91;41.70
75767;BME280;64378;55.596;13.014;2023-01-05T08:53:46;100311.63;;;19.92;41.92
75767;BME280;64378;55.596;13.014;2023-01-05T08:56:12;100308.59;;;19.94;41.99
75767;BME280;64378;55.596;13.014;2023-01-05T08:58:38;100323.94;;;19.95;41.97
75767;BME280;64378;55.596;13.014;2023-01-05T09:01:12;100331.91;;;19.96;41.96
75767;BME280;64378;55.596;13.014;2023-01-05T09:03:37;100334.13;;;19.99;41.93
75767;BME280;64378;55.596;13.014;2023-01-05T09:06:04;100332.19;;;20.00;41.83
75767;BME280;64378;55.596;13.014;2023-01-05T09:08:31;100349.16;;;20.02;41.98
75767;BME280;64378;55.596;13.014;2023-01-05T09:11:18;100349.16;;;20.02;41.79
75767;BME280;64378;55.596;13.014;2023-01-05T09:13:54;100348.06;;;20.03;42.07
75767;BME280;64378;55.596;13.014;2023-01-05T09:16:22;100363.41;;;20.04;42.27
75767;BME280;64378;55.596;13.014;2023-01-05T09:18:48;100370.25;;;20.06;42.60
75767;BME280;64378;55.596;13.014;2023-01-05T09:21:13;100376.81;;;20.05;42.52
75767;BME280;64378;55.596;13.014;2023-01-05T09:23:39;100389.97;;;20.08;42.70
75767;BME280;64378;55.596;13.014;2023-01-05T09:26:07;100401.50;;;20.10;43.08
75767;BME280;64378;55.596;13.014;2023-01-05T09:28:33;100400.41;;;20.11;42.67
75767;BME280;64378;55.596;13.014;2023-01-05T09:31:12;100405.63;;;20.13;42.51
75767;BME280;64378;55.596;13.014;2023-01-05T09:33:39;100409.97;;;20.14;42.71
75767;BME280;64378;55.596;13.014;2023-01-05T09:36:04;100409.97;;;20.14;42.07
75767;BME280;64378;55.596;13.014;2023-01-05T09:38:30;100422.84;;;20.13;42.08
75767;BME280;64378;55.596;13.014;2023-01-05T09:40:59;100433.53;;;20.15;41.74
75767;BME280;64378;55.596;13.014;2023-01-05T09:43:37;100434.38;;;20.15;42.07
75767;BME280;64378;55.596;13.014;2023-01-05T09:46:05;100438.19;;;20.14;41.62
75767;BME280;64378;55.596;13.014;2023-01-05T09:48:38;100448.88;;;20.16;41.60
75767;BME280;64378;55.596;13.014;2023-01-05T09:51:04;100462.56;;;20.16;41.48
75767;BME280;64378;55.596;13.014;2023-01-05T09:53:29;100465.31;;;20.16;41.54
75767;BME280;64378;55.596;13.014;2023-01-05T09:55:56;100466.97;;;20.17;41.13
75767;BME280;64378;55.596;13.014;2023-01-05T09:58:29;100476.81;;;20.18;41.29
75767;BME280;64378;55.596;13.014;2023-01-05T10:01:12;100486.13;;;20.17;41.12
75767;BME280;64378;55.596;13.014;2023-01-05T10:03:46;100485.03;;;20.18;40.97
75767;BME280;64378;55.596;13.014;2023-01-05T10:06:15;100498.75;;;20.18;40.99
75767;BME280;64378;55.596;13.014;2023-01-05T10:08:46;100508.59;;;20.19;41.07
75767;BME280;64378;55.596;13.014;2023-01-05T10:11:17;100519.56;;;20.19;40.83
75767;BME280;64378;55.596;13.014;2023-01-05T10:14:08;100528.63;;;20.19;40.88
75767;BME280;64378;55.596;13.014;2023-01-05T10:16:34;100536.84;;;20.19;40.49
75767;BME280;64378;55.596;13.014;2023-01-05T10:19:00;100540.69;;;20.18;40.43
75767;BME280;64378;55.596;13.014;2023-01-05T10:24:23;100557.91;;;20.19;40.57
75767;BME280;64378;55.596;13.014;2023-01-05T10:27:14;100562.59;;;20.18;40.56
75767;BME280;64378;55.596;13.014;2023-01-05T10:29:47;100579.59;;;20.20;40.29
75767;BME280;64378;55.596;13.014;2023-01-05T10:32:23;100595.19;;;20.20;40.57
75767;BME280;64378;55.596;13.014;2023-01-05T10:35:12;100600.66;;;20.20;40.32
75767;BME280;64378;55.596;13.014;2023-01-05T10:38:11;100615.19;;;20.20;40.21
75767;BME280;64378;55.596;13.014;2023-01-05T10:41:05;100617.66;;;20.22;40.19
75767;BME280;64378;55.596;13.014;2023-01-05T10:43:43;100613.28;;;20.21;40.18
75767;BME280;64378;55.596;13.014;2023-01-05T10:46:15;100631.63;;;20.20;40.23
75767;BME280;64378;55.596;13.014;2023-01-05T10:48:40;100647.78;;;20.22;40.46
75767;BME280;64378;55.596;13.014;2023-01-05T10:51:06;100655.75;;;20.23;40.20
75767;BME280;64378;55.596;13.014;2023-01-05T10:53:35;100650.53;;;20.22;40.05
75767;BME280;64378;55.596;13.014;2023-01-05T10:56:09;100667.81;;;20.22;40.04
75767;BME280;64378;55.596;13.014;2023-01-05T10:58:39;100669.19;;;20.25;40.13
75767;BME280;64378;55.596;13.014;2023-01-05T11:01:23;100672.75;;;20.25;39.86
75767;BME280;64378;55.596;13.014;2023-01-05T11:03:53;100685.63;;;20.25;39.69
75767;BME280;64378;55.596;13.014;2023-01-05T11:06:22;100690.00;;;20.26;39.84
75767;BME280;64378;55.596;13.014;2023-01-05T11:08:50;100699.31;;;20.25;39.55
75767;BME280;64378;55.596;13.014;2023-01-05T11:11:21;100717.41;;;20.26;39.66
75767;BME280;64378;55.596;13.014;2023-01-05T11:13:48;100728.38;;;20.26;39.52
75767;BME280;64378;55.596;13.014;2023-01-05T11:18:56;100748.63;;;20.25;39.47
75767;BME280;64378;55.596;13.014;2023-01-05T11:21:47;100757.44;;;20.27;39.36
75767;BME280;64378;55.596;13.014;2023-01-05T11:24:34;100765.91;;;20.25;39.19
75767;BME280;64378;55.596;13.014;2023-01-05T11:27:02;100768.66;;;20.25;39.32
75767;BME280;64378;55.596;13.014;2023-01-05T11:29:29;100770.56;;;20.25;39.36
75767;BME280;64378;55.596;13.014;2023-01-05T11:32:00;100796.88;;;20.26;39.14
75767;BME280;64378;55.596;13.014;2023-01-05T11:36:55;100819.06;;;20.24;38.92
75767;BME280;64378;55.596;13.014;2023-01-05T11:39:28;100828.94;;;20.25;38.83
75767;BME280;64378;55.596;13.014;2023-01-05T11:44:56;100842.66;;;20.25;39.07
75767;BME280;64378;55.596;13.014;2023-01-05T11:47:35;100850.88;;;20.25;38.86
75767;BME280;64378;55.596;13.014;2023-01-05T11:50:18;100858.25;;;20.25;38.97
75767;BME280;64378;55.596;13.014;2023-01-05T11:52:50;100867.56;;;20.24;39.02
75767;BME280;64378;55.596;13.014;2023-01-05T11:57:49;100888.38;;;20.25;38.73
75767;BME280;64378;55.596;13.014;2023-01-05T12:00:22;100896.59;;;20.25;38.95
75767;BME280;64378;55.596;13.014;2023-01-05T12:05:41;100911.97;;;20.26;38.56
75767;BME280;64378;55.596;13.014;2023-01-05T12:08:22;100920.19;;;20.26;38.59
75767;BME280;64378;55.596;13.014;2023-01-05T12:15:53;100944.03;;;20.25;38.41
75767;BME280;64378;55.596;13.014;2023-01-05T12:21:06;100964.03;;;20.26;38.35
75767;BME280;64378;55.596;13.014;2023-01-05T12:26:27;100963.22;;;20.25;38.02
75767;BME280;64378;55.596;13.014;2023-01-05T12:29:05;100980.72;;;20.24;37.98
75767;BME280;64378;55.596;13.014;2023-01-05T12:39:51;101019.91;;;20.25;38.01
75767;BME280;64378;55.596;13.014;2023-01-05T12:42:48;101029.78;;;20.26;38.01
75767;BME280;64378;55.596;13.014;2023-01-05T12:45:28;101035.25;;;20.26;37.82
75767;BME280;64378;55.596;13.014;2023-01-05T12:48:20;101046.22;;;20.26;37.97
75767;BME280;64378;55.596;13.014;2023-01-05T12:51:02;101054.44;;;20.26;37.81
75767;BME280;64378;55.596;13.014;2023-01-05T12:53:48;101065.41;;;20.26;37.86
75767;BME280;64378;55.596;13.014;2023-01-05T12:59:16;101084.59;;;20.26;37.72
75767;BME280;64378;55.596;13.014;2023-01-05T13:01:55;101097.47;;;20.25;37.93
75767;BME280;64378;55.596;13.014;2023-01-05T13:06:59;101122.69;;;20.27;37.85
75767;BME280;64378;55.596;13.014;2023-01-05T13:09:30;101121.88;;;20.27;37.45
75767;BME280;64378;55.596;13.014;2023-01-05T13:12:07;101131.75;;;20.28;37.63
75767;BME280;64378;55.596;13.014;2023-01-05T13:14:36;101135.56;;;20.27;37.55
75767;BME280;64378;55.596;13.014;2023-01-05T13:17:20;101136.38;;;20.27;37.52
75767;BME280;64378;55.596;13.014;2023-01-05T13:19:53;101152.00;;;20.27;37.56
75767;BME280;64378;55.596;13.014;2023-01-05T13:22:25;101161.88;;;20.28;37.12
75767;BME280;64378;55.596;13.014;2023-01-05T13:24:58;101162.13;;;20.26;37.43
75767;BME280;64378;55.596;13.014;2023-01-05T13:27:25;101183.81;;;20.28;37.31
75767;BME280;64378;55.596;13.014;2023-01-05T13:29:53;101193.94;;;20.27;37.36
75767;BME280;64378;55.596;13.014;2023-01-05T13:39:03;101204.06;;;20.27;37.37
75767;BME280;64378;55.596;13.014;2023-01-05T13:42:00;101209.81;;;20.25;37.11
75767;BME280;64378;55.596;13.014;2023-01-05T13:45:18;101218.84;;;20.26;37.32
75767;BME280;64378;55.596;13.014;2023-01-05T13:47:40;101227.09;;;20.26;37.15
75767;BME280;64378;55.596;13.014;2023-01-05T13:56:01;101238.03;;;20.26;36.71
75767;BME280;64378;55.596;13.014;2023-01-05T13:58:46;101247.34;;;20.25;36.85
75767;BME280;64378;55.596;13.014;2023-01-05T14:01:16;101259.16;;;20.25;36.96
75767;BME280;64378;55.596;13.014;2023-01-05T14:03:50;101265.44;;;20.26;37.12
75767;BME280;64378;55.596;13.014;2023-01-05T14:06:26;101267.38;;;20.25;36.88
75767;BME280;64378;55.596;13.014;2023-01-05T14:09:02;101286.56;;;20.25;37.23
75767;BME280;64378;55.596;13.014;2023-01-05T14:11:29;101288.19;;;20.26;37.11
75767;BME280;64378;55.596;13.014;2023-01-05T14:24:42;101310.94;;;20.27;37.10
75767;BME280;64378;55.596;13.014;2023-01-05T14:27:22;101324.06;;;20.25;36.92
75767;BME280;64378;55.596;13.014;2023-01-05T14:34:49;101351.47;;;20.25;36.67